sensor_id;sensor_type;location;lat;lon;timestamp;pressure;altitude;pressure_sealevel;temperature;humidity
12178;BME280;6152;48.728;9.256;2022-12-29T00:01:37;96680.53;;;6.57;100.00
12178;BME280;6152;48.728;9.256;2022-12-29T00:04:04;96678.47;;;6.64;100.00
12178;BME280;6152;48.728;9.256;2022-12-29T00:06:31;96681.78;;;6.66;100.00
12178;BME280;6152;48.728;9.256;2022-12-29T00:08:57;96675.66;;;6.69;100.00
12178;BME280;6152;48.728;9.256;2022-12-29T00:11:26;96674.53;;;6.73;100.00
12178;BME280;6152;48.728;9.256;2022-12-29T00:13:53;96680.50;;;6.75;100.00
12178;BME280;6152;48.728;9.256;2022-12-29T00:16:40;96675.91;;;6.80;100.00
12178;BME280;6152;48.728;9.256;2022-12-29T00:19:07;96665.81;;;6.91;100.00
12178;BME280;6152;48.728;9.256;2022-12-29T00:21:53;96660.66;;;6.91;100.00
12178;BME280;6152;48.728;9.256;2022-12-29T00:24:37;96651.81;;;6.95;100.00
12178;BME280;6152;48.728;9.256;2022-12-29T00:27:22;96646.31;;;7.01;100.00
12178;BME280;6152;48.728;9.256;2022-12-29T00:30:18;96641.13;;;7.01;100.00
12178;BME280;6152;48.728;9.256;2022-12-29T00:33:14;96641.47;;;7.10;100.00
12178;BME280;6152;48.728;9.256;2022-12-29T00:36:19;96643.97;;;7.12;100.00
12178;BME280;6152;48.728;9.256;2022-12-29T00:38:54;96632.56;;;7.16;100.00
12178;BME280;6152;48.728;9.256;2022-12-29T00:41:40;96639.13;;;7.22;100.00
12178;BME280;6152;48.728;9.256;2022-12-29T00:44:25;96635.28;;;7.29;100.00
12178;BME280;6152;48.728;9.256;2022-12-29T00:46:51;96636.13;;;7.29;100.00
12178;BME280;6152;48.728;9.256;2022-12-29T00:49:17;96640.47;;;7.29;100.00
12178;BME280;6152;48.728;9.256;2022-12-29T00:52:07;96635.97;;;7.32;100.00
12178;BME280;6152;48.728;9.256;2022-12-29T00:54:36;96639.81;;;7.41;100.00
12178;BME280;6152;48.728;9.256;2022-12-29T00:57:03;96634.44;;;7.44;100.00
12178;BME280;6152;48.728;9.256;2022-12-29T00:59:29;96633.44;;;7.46;100.00
12178;BME280;6152;48.728;9.256;2022-12-29T01:01:56;96632.34;;;7.50;100.00
12178;BME280;6152;48.728;9.256;2022-12-29T01:04:24;96627.59;;;7.43;100.00
12178;BME280;6152;48.728;9.256;2022-12-29T01:06:50;96636.75;;;7.48;100.00
12178;BME280;6152;48.728;9.256;2022-12-29T01:09:17;96642.03;;;7.47;100.00
12178;BME280;6152;48.728;9.256;2022-12-29T01:12:03;96640.59;;;7.41;100.00
12178;BME280;6152;48.728;9.256;2022-12-29T01:14:30;96639.13;;;7.37;100.00
12178;BME280;6152;48.728;9.256;2022-12-29T01:16:56;96644.50;;;7.34;100.00
12178;BME280;6152;48.728;9.256;2022-12-29T01:19:22;96645.47;;;7.32;100.00
12178;BME280;6152;48.728;9.256;2022-12-29T01:21:49;96647.16;;;7.33;100.00
12178;BME280;6152;48.728;9.256;2022-12-29T01:24:17;96648.00;;;7.33;100.00
12178;BME280;6152;48.728;9.256;2022-12-29T01:26:44;96651.31;;;7.35;100.00
12178;BME280;6152;48.728;9.256;2022-12-29T01:29:10;96647.81;;;7.36;100.00
12178;BME280;6152;48.728;9.256;2022-12-29T01:31:37;96652.66;;;7.42;100.00
12178;BME280;6152;48.728;9.256;2022-12-29T01:34:03;96653.25;;;7.47;100.00
12178;BME280;6152;48.728;9.256;2022-12-29T01:36:30;96654.16;;;7.46;100.00
12178;BME280;6152;48.728;9.256;2022-12-29T01:38:56;96649.72;;;7.48;100.00
12178;BME280;6152;48.728;9.256;2022-12-29T01:41:22;96651.38;;;7.49;100.00
12178;BME280;6152;48.728;9.256;2022-12-29T01:43:56;96658.97;;;7.52;100.00
12178;BME280;6152;48.728;9.256;2022-12-29T01:49:15;96652.81;;;7.55;100.00
12178;BME280;6152;48.728;9.256;2022-12-29T01:51:59;96650.97;;;7.57;100.00
12178;BME280;6152;48.728;9.256;2022-12-29T01:54:39;96650.78;;;7.60;100.00
12178;BME280;6152;48.728;9.256;2022-12-29T01:57:12;96645.59;;;7.60;100.00
12178;BME280;6152;48.728;9.256;2022-12-29T01:59:46;96637.91;;;7.58;100.00
12178;BME280;6152;48.728;9.256;2022-12-29T02:02:15;96650.78;;;7.60;100.00
12178;BME280;6152;48.728;9.256;2022-12-29T02:04:43;96648.94;;;7.62;100.00
12178;BME280;6152;48.728;9.256;2022-12-29T02:07:19;96648.13;;;7.61;100.00
12178;BME280;6152;48.728;9.256;2022-12-29T02:09:49;96651.44;;;7.63;100.00
12178;BME280;6152;48.728;9.256;2022-12-29T02:12:20;96640.91;;;7.67;100.00
12178;BME280;6152;48.728;9.256;2022-12-29T02:14:50;96637.22;;;7.71;100.00
12178;BME280;6152;48.728;9.256;2022-12-29T02:17:48;96627.06;;;7.68;100.00
12178;BME280;6152;48.728;9.256;2022-12-29T02:20:37;96643.16;;;7.73;100.00
12178;BME280;6152;48.728;9.256;2022-12-29T02:32:03;96620.69;;;8.17;100.00
12178;BME280;6152;48.728;9.256;2022-12-29T02:37:23;96623.06;;;8.36;100.00
12178;BME280;6152;48.728;9.256;2022-12-29T02:40:17;96630.59;;;8.54;100.00
12178;BME280;6152;48.728;9.256;2022-12-29T02:48:29;96617.22;;;8.89;100.00
12178;BME280;6152;48.728;9.256;2022-12-29T02:51:24;96611.63;;;9.09;100.00
12178;BME280;6152;48.728;9.256;2022-12-29T02:53:53;96609.56;;;9.14;100.00
12178;BME280;6152;48.728;9.256;2022-12-29T02:56:39;96610.50;;;9.13;100.00
12178;BME280;6152;48.728;9.256;2022-12-29T02:59:05;96601.69;;;9.16;100.00
12178;BME280;6152;48.728;9.256;2022-12-29T03:12:16;96617.50;;;9.25;100.00
12178;BME280;6152;48.728;9.256;2022-12-29T03:14:59;96609.63;;;9.27;100.00
12178;BME280;6152;48.728;9.256;2022-12-29T03:17:55;96604.44;;;9.27;100.00
12178;BME280;6152;48.728;9.256;2022-12-29T03:20:49;96600.09;;;9.27;100.00
12178;BME280;6152;48.728;9.256;2022-12-29T03:23:20;96603.50;;;9.28;100.00
12178;BME280;6152;48.728;9.256;2022-12-29T03:25:50;96595.19;;;9.23;100.00
12178;BME280;6152;48.728;9.256;2022-12-29T03:28:40;96599.72;;;9.19;100.00
12178;BME280;6152;48.728;9.256;2022-12-29T03:31:08;96595.78;;;9.13;100.00
12178;BME280;6152;48.728;9.256;2022-12-29T03:33:36;96594.19;;;9.11;100.00
12178;BME280;6152;48.728;9.256;2022-12-29T03:36:06;96581.00;;;9.14;100.00
12178;BME280;6152;48.728;9.256;2022-12-29T03:38:49;96582.59;;;9.17;100.00
12178;BME280;6152;48.728;9.256;2022-12-29T03:41:20;96581.16;;;9.25;100.00
12178;BME280;6152;48.728;9.256;2022-12-29T03:43:49;96585.03;;;9.32;100.00
12178;BME280;6152;48.728;9.256;2022-12-29T03:46:15;96585.16;;;9.31;100.00
12178;BME280;6152;48.728;9.256;2022-12-29T03:48:41;96585.97;;;9.31;100.00
12178;BME280;6152;48.728;9.256;2022-12-29T03:51:07;96570.38;;;9.31;100.00
12178;BME280;6152;48.728;9.256;2022-12-29T03:53:33;96559.81;;;9.34;100.00
12178;BME280;6152;48.728;9.256;2022-12-29T03:55:59;96570.66;;;9.41;100.00
12178;BME280;6152;48.728;9.256;2022-12-29T03:58:25;96576.47;;;9.44;100.00
12178;BME280;6152;48.728;9.256;2022-12-29T04:00:51;96576.66;;;9.41;100.00
12178;BME280;6152;48.728;9.256;2022-12-29T04:03:17;96564.63;;;9.40;100.00
12178;BME280;6152;48.728;9.256;2022-12-29T04:05:43;96569.59;;;9.43;100.00
12178;BME280;6152;48.728;9.256;2022-12-29T04:08:09;96566.88;;;9.45;100.00
12178;BME280;6152;48.728;9.256;2022-12-29T04:10:35;96574.69;;;9.45;100.00
12178;BME280;6152;48.728;9.256;2022-12-29T04:13:02;96574.25;;;9.38;100.00
12178;BME280;6152;48.728;9.256;2022-12-29T04:15:28;96580.03;;;9.29;100.00
12178;BME280;6152;48.728;9.256;2022-12-29T04:17:54;96581.72;;;9.30;100.00
12178;BME280;6152;48.728;9.256;2022-12-29T04:20:20;96573.28;;;9.27;100.00
12178;BME280;6152;48.728;9.256;2022-12-29T04:23:06;96572.25;;;9.29;100.00
12178;BME280;6152;48.728;9.256;2022-12-29T04:25:33;96575.56;;;9.31;100.00
12178;BME280;6152;48.728;9.256;2022-12-29T04:27:59;96584.13;;;9.33;100.00
12178;BME280;6152;48.728;9.256;2022-12-29T04:30:26;96597.09;;;9.33;100.00
12178;BME280;6152;48.728;9.256;2022-12-29T04:32:53;96592.63;;;9.35;100.00
12178;BME280;6152;48.728;9.256;2022-12-29T04:35:19;96590.97;;;9.34;100.00
12178;BME280;6152;48.728;9.256;2022-12-29T04:37:45;96589.53;;;9.43;100.00
12178;BME280;6152;48.728;9.256;2022-12-29T04:40:11;96590.25;;;9.45;100.00
12178;BME280;6152;48.728;9.256;2022-12-29T04:42:38;96583.31;;;9.45;100.00
12178;BME280;6152;48.728;9.256;2022-12-29T04:45:04;96581.06;;;9.53;100.00
12178;BME280;6152;48.728;9.256;2022-12-29T04:47:30;96581.97;;;9.52;100.00
12178;BME280;6152;48.728;9.256;2022-12-29T04:49:56;96581.16;;;9.52;100.00
12178;BME280;6152;48.728;9.256;2022-12-29T04:52:22;96585.22;;;9.56;100.00
12178;BME280;6152;48.728;9.256;2022-12-29T04:54:48;96572.34;;;9.54;100.00
12178;BME280;6152;48.728;9.256;2022-12-29T04:57:14;96579.59;;;9.49;100.00
12178;BME280;6152;48.728;9.256;2022-12-29T04:59:41;96585.19;;;9.43;100.00
12178;BME280;6152;48.728;9.256;2022-12-29T05:02:07;96585.38;;;9.40;100.00
12178;BME280;6152;48.728;9.256;2022-12-29T05:04:33;96582.25;;;9.35;100.00
12178;BME280;6152;48.728;9.256;2022-12-29T05:06:59;96600.63;;;9.32;100.00
12178;BME280;6152;48.728;9.256;2022-12-29T05:09:25;96587.44;;;9.35;100.00
12178;BME280;6152;48.728;9.256;2022-12-29T05:11:51;96591.78;;;9.35;100.00
12178;BME280;6152;48.728;9.256;2022-12-29T05:14:17;96596.34;;;9.31;100.00
12178;BME280;6152;48.728;9.256;2022-12-29T05:16:43;96596.34;;;9.31;100.00
12178;BME280;6152;48.728;9.256;2022-12-29T05:19:09;96595.72;;;9.28;100.00
12178;BME280;6152;48.728;9.256;2022-12-29T05:21:35;96594.25;;;9.24;100.00
12178;BME280;6152;48.728;9.256;2022-12-29T05:24:01;96598.78;;;9.34;100.00
12178;BME280;6152;48.728;9.256;2022-12-29T05:26:28;96595.81;;;9.26;100.00
12178;BME280;6152;48.728;9.256;2022-12-29T05:28:54;96594.53;;;9.19;100.00
12178;BME280;6152;48.728;9.256;2022-12-29T05:31:20;96588.78;;;9.14;100.00
12178;BME280;6152;48.728;9.256;2022-12-29T05:33:46;96578.41;;;9.14;100.00
12178;BME280;6152;48.728;9.256;2022-12-29T05:36:12;96571.78;;;9.10;100.00
12178;BME280;6152;48.728;9.256;2022-12-29T05:38:38;96589.81;;;9.11;100.00
12178;BME280;6152;48.728;9.256;2022-12-29T05:41:04;96594.53;;;9.19;100.00
12178;BME280;6152;48.728;9.256;2022-12-29T05:43:31;96596.53;;;9.28;100.00
12178;BME280;6152;48.728;9.256;2022-12-29T05:45:57;96584.13;;;9.33;100.00
12178;BME280;6152;48.728;9.256;2022-12-29T05:48:23;96585.47;;;9.39;100.00
12178;BME280;6152;48.728;9.256;2022-12-29T05:50:50;96580.41;;;9.37;100.00
12178;BME280;6152;48.728;9.256;2022-12-29T05:53:17;96578.44;;;9.41;100.00
12178;BME280;6152;48.728;9.256;2022-12-29T05:55:44;96575.91;;;9.39;100.00
12178;BME280;6152;48.728;9.256;2022-12-29T05:58:10;96578.91;;;9.33;100.00
12178;BME280;6152;48.728;9.256;2022-12-29T06:00:36;96583.03;;;9.23;100.00
12178;BME280;6152;48.728;9.256;2022-12-29T06:03:03;96571.38;;;9.16;100.00
12178;BME280;6152;48.728;9.256;2022-12-29T06:05:29;96585.28;;;9.15;100.00
12178;BME280;6152;48.728;9.256;2022-12-29T06:07:55;96578.38;;;9.28;100.00
12178;BME280;6152;48.728;9.256;2022-12-29T06:10:21;96580.88;;;9.30;100.00
12178;BME280;6152;48.728;9.256;2022-12-29T06:12:47;96560.75;;;9.33;100.00
12178;BME280;6152;48.728;9.256;2022-12-29T06:15:14;96561.47;;;9.35;100.00
12178;BME280;6152;48.728;9.256;2022-12-29T06:17:40;96563.13;;;9.36;100.00
12178;BME280;6152;48.728;9.256;2022-12-29T06:20:07;96550.66;;;9.41;100.00
12178;BME280;6152;48.728;9.256;2022-12-29T06:22:33;96552.16;;;9.45;100.00
12178;BME280;6152;48.728;9.256;2022-12-29T06:24:59;96550.50;;;9.44;100.00
12178;BME280;6152;48.728;9.256;2022-12-29T06:27:27;96550.28;;;9.47;100.00
12178;BME280;6152;48.728;9.256;2022-12-29T06:29:54;96557.53;;;9.42;100.00
12178;BME280;6152;48.728;9.256;2022-12-29T06:32:20;96558.97;;;9.34;100.00
12178;BME280;6152;48.728;9.256;2022-12-29T06:34:47;96563.91;;;9.24;100.00
12178;BME280;6152;48.728;9.256;2022-12-29T06:37:13;96568.66;;;9.18;100.00
12178;BME280;6152;48.728;9.256;2022-12-29T06:39:40;96571.38;;;9.16;100.00
12178;BME280;6152;48.728;9.256;2022-12-29T06:42:06;96563.88;;;9.11;100.00
12178;BME280;6152;48.728;9.256;2022-12-29T06:44:32;96575.09;;;9.12;100.00
12178;BME280;6152;48.728;9.256;2022-12-29T06:46:58;96571.03;;;9.08;100.00
12178;BME280;6152;48.728;9.256;2022-12-29T06:49:25;96571.22;;;9.05;100.00
12178;BME280;6152;48.728;9.256;2022-12-29T06:51:51;96581.69;;;9.03;100.00
12178;BME280;6152;48.728;9.256;2022-12-29T06:54:17;96576.41;;;9.05;100.00
12178;BME280;6152;48.728;9.256;2022-12-29T06:56:43;96572.13;;;9.04;100.00
12178;BME280;6152;48.728;9.256;2022-12-29T06:59:10;96564.06;;;9.08;100.00
12178;BME280;6152;48.728;9.256;2022-12-29T07:01:36;96549.97;;;9.12;100.00
12178;BME280;6152;48.728;9.256;2022-12-29T07:04:05;96559.59;;;9.10;100.00
12178;BME280;6152;48.728;9.256;2022-12-29T07:06:31;96559.06;;;9.05;100.00
12178;BME280;6152;48.728;9.256;2022-12-29T07:08:57;96564.16;;;9.07;100.00
12178;BME280;6152;48.728;9.256;2022-12-29T07:11:23;96564.56;;;9.01;100.00
12178;BME280;6152;48.728;9.256;2022-12-29T07:13:49;96562.78;;;9.01;100.00
12178;BME280;6152;48.728;9.256;2022-12-29T07:16:16;96562.72;;;9.03;100.00
12178;BME280;6152;48.728;9.256;2022-12-29T07:18:42;96558.03;;;9.08;100.00
12178;BME280;6152;48.728;9.256;2022-12-29T07:21:08;96559.72;;;9.09;100.00
12178;BME280;6152;48.728;9.256;2022-12-29T07:23:34;96566.75;;;9.07;100.00
12178;BME280;6152;48.728;9.256;2022-12-29T07:26:05;96554.31;;;9.12;100.00
12178;BME280;6152;48.728;9.256;2022-12-29T07:28:32;96556.19;;;9.10;100.00
12178;BME280;6152;48.728;9.256;2022-12-29T07:30:59;96557.00;;;9.10;100.00
12178;BME280;6152;48.728;9.256;2022-12-29T07:33:25;96569.91;;;9.12;100.00
12178;BME280;6152;48.728;9.256;2022-12-29T07:35:51;96562.56;;;9.19;100.00
12178;BME280;6152;48.728;9.256;2022-12-29T07:38:17;96569.50;;;9.18;100.00
12178;BME280;6152;48.728;9.256;2022-12-29T07:40:44;96574.50;;;9.21;100.00
12178;BME280;6152;48.728;9.256;2022-12-29T07:43:10;96570.78;;;9.25;100.00
12178;BME280;6152;48.728;9.256;2022-12-29T07:45:36;96580.03;;;9.29;100.00
12178;BME280;6152;48.728;9.256;2022-12-29T07:48:02;96580.59;;;9.34;100.00
12178;BME280;6152;48.728;9.256;2022-12-29T07:50:29;96574.44;;;9.35;100.00
12178;BME280;6152;48.728;9.256;2022-12-29T07:52:55;96568.41;;;9.35;100.00
12178;BME280;6152;48.728;9.256;2022-12-29T07:55:21;96573.72;;;9.33;100.00
12178;BME280;6152;48.728;9.256;2022-12-29T07:57:47;96570.44;;;9.44;100.00
12178;BME280;6152;48.728;9.256;2022-12-29T08:00:13;96583.09;;;9.48;100.00
12178;BME280;6152;48.728;9.256;2022-12-29T08:02:40;96581.25;;;9.50;100.00
12178;BME280;6152;48.728;9.256;2022-12-29T08:05:06;96575.47;;;9.59;100.00
12178;BME280;6152;48.728;9.256;2022-12-29T08:07:32;96573.63;;;9.61;100.00
12178;BME280;6152;48.728;9.256;2022-12-29T08:09:58;96581.19;;;9.64;100.00
12178;BME280;6152;48.728;9.256;2022-12-29T08:12:24;96584.09;;;9.73;100.00
12178;BME280;6152;48.728;9.256;2022-12-29T08:14:51;96585.38;;;9.80;100.00
12178;BME280;6152;48.728;9.256;2022-12-29T08:17:17;96596.31;;;9.85;100.00
12178;BME280;6152;48.728;9.256;2022-12-29T08:19:43;96594.03;;;9.93;100.00
12178;BME280;6152;48.728;9.256;2022-12-29T08:22:09;96588.53;;;9.97;100.00
12178;BME280;6152;48.728;9.256;2022-12-29T08:24:35;96605.69;;;10.00;100.00
12178;BME280;6152;48.728;9.256;2022-12-29T08:27:01;96600.09;;;10.06;100.00
12178;BME280;6152;48.728;9.256;2022-12-29T08:29:27;96605.81;;;10.11;100.00
12178;BME280;6152;48.728;9.256;2022-12-29T08:31:53;96606.75;;;10.10;100.00
12178;BME280;6152;48.728;9.256;2022-12-29T08:34:20;96606.56;;;10.13;100.00
12178;BME280;6152;48.728;9.256;2022-12-29T08:36:46;96605.88;;;10.24;100.00
12178;BME280;6152;48.728;9.256;2022-12-29T08:39:12;96596.09;;;10.27;100.00
12178;BME280;6152;48.728;9.256;2022-12-29T08:41:38;96596.59;;;10.32;100.00
12178;BME280;6152;48.728;9.256;2022-12-29T08:44:04;96592.84;;;10.36;100.00
12178;BME280;6152;48.728;9.256;2022-12-29T08:46:31;96594.19;;;10.42;100.00
12178;BME280;6152;48.728;9.256;2022-12-29T08:48:57;96588.59;;;10.48;100.00
12178;BME280;6152;48.728;9.256;2022-12-29T08:51:23;96586.19;;;10.57;100.00
12178;BME280;6152;48.728;9.256;2022-12-29T08:53:49;96581.47;;;10.62;100.00
12178;BME280;6152;48.728;9.256;2022-12-29T08:56:16;96590.88;;;10.65;100.00
12178;BME280;6152;48.728;9.256;2022-12-29T08:58:43;96581.56;;;10.74;100.00
12178;BME280;6152;48.728;9.256;2022-12-29T09:01:09;96576.38;;;10.74;100.00
12178;BME280;6152;48.728;9.256;2022-12-29T09:03:36;96586.69;;;10.75;100.00
12178;BME280;6152;48.728;9.256;2022-12-29T09:06:02;96596.25;;;10.75;100.00
12178;BME280;6152;48.728;9.256;2022-12-29T09:08:28;96593.88;;;10.72;100.00
12178;BME280;6152;48.728;9.256;2022-12-29T09:10:54;96603.66;;;10.68;100.00
12178;BME280;6152;48.728;9.256;2022-12-29T09:13:20;96601.16;;;10.67;100.00
12178;BME280;6152;48.728;9.256;2022-12-29T09:15:46;96605.44;;;10.68;100.00
12178;BME280;6152;48.728;9.256;2022-12-29T09:18:13;96620.13;;;10.69;100.00
12178;BME280;6152;48.728;9.256;2022-12-29T09:20:39;96621.31;;;10.76;100.00
12178;BME280;6152;48.728;9.256;2022-12-29T09:23:05;96623.81;;;10.90;100.00
12178;BME280;6152;48.728;9.256;2022-12-29T09:25:34;96615.81;;;10.93;100.00
12178;BME280;6152;48.728;9.256;2022-12-29T09:28:00;96621.19;;;11.02;100.00
12178;BME280;6152;48.728;9.256;2022-12-29T09:30:31;96623.69;;;11.04;100.00
12178;BME280;6152;48.728;9.256;2022-12-29T09:32:58;96629.09;;;11.01;100.00
12178;BME280;6152;48.728;9.256;2022-12-29T09:35:24;96622.75;;;11.05;100.00
12178;BME280;6152;48.728;9.256;2022-12-29T09:37:50;96623.97;;;11.12;100.00
12178;BME280;6152;48.728;9.256;2022-12-29T09:40:32;96623.31;;;11.21;100.00
12178;BME280;6152;48.728;9.256;2022-12-29T09:43:24;96632.19;;;11.19;100.00
12178;BME280;6152;48.728;9.256;2022-12-29T09:48:32;96616.41;;;11.33;99.57
12178;BME280;6152;48.728;9.256;2022-12-29T09:51:03;96621.19;;;11.39;98.84
12178;BME280;6152;48.728;9.256;2022-12-29T09:53:42;96626.06;;;11.43;98.63
12178;BME280;6152;48.728;9.256;2022-12-29T09:56:21;96620.53;;;11.48;99.49
12178;BME280;6152;48.728;9.256;2022-12-29T09:59:08;96610.91;;;11.48;99.88
12178;BME280;6152;48.728;9.256;2022-12-29T10:02:10;96619.97;;;11.55;99.43
12178;BME280;6152;48.728;9.256;2022-12-29T10:04:41;96618.81;;;11.59;98.32
12178;BME280;6152;48.728;9.256;2022-12-29T10:09:52;96619.03;;;11.80;100.00
12178;BME280;6152;48.728;9.256;2022-12-29T10:21:24;96627.56;;;11.58;100.00
12178;BME280;6152;48.728;9.256;2022-12-29T10:23:53;96622.34;;;11.58;100.00
12178;BME280;6152;48.728;9.256;2022-12-29T10:26:33;96636.66;;;11.53;100.00
12178;BME280;6152;48.728;9.256;2022-12-29T10:29:08;96620.56;;;11.59;100.00
12178;BME280;6152;48.728;9.256;2022-12-29T10:31:44;96626.91;;;11.68;100.00
12178;BME280;6152;48.728;9.256;2022-12-29T10:34:27;96629.00;;;11.75;100.00
12178;BME280;6152;48.728;9.256;2022-12-29T10:36:58;96626.88;;;11.80;100.00
12178;BME280;6152;48.728;9.256;2022-12-29T10:39:47;96631.03;;;11.83;100.00
12178;BME280;6152;48.728;9.256;2022-12-29T10:42:32;96630.22;;;11.93;100.00
12178;BME280;6152;48.728;9.256;2022-12-29T10:45:03;96615.78;;;12.00;100.00
12178;BME280;6152;48.728;9.256;2022-12-29T10:47:35;96612.38;;;12.11;100.00
12178;BME280;6152;48.728;9.256;2022-12-29T10:50:03;96620.66;;;13.40;94.31
12178;BME280;6152;48.728;9.256;2022-12-29T10:52:31;96613.03;;;14.74;82.69
12178;BME280;6152;48.728;9.256;2022-12-29T10:55:02;96621.94;;;16.10;72.09
12178;BME280;6152;48.728;9.256;2022-12-29T10:57:44;96618.06;;;16.24;67.38
12178;BME280;6152;48.728;9.256;2022-12-29T11:00:19;96613.84;;;15.04;71.25
12178;BME280;6152;48.728;9.256;2022-12-29T11:05:20;96614.50;;;13.73;80.75
12178;BME280;6152;48.728;9.256;2022-12-29T11:07:50;96618.56;;;13.23;86.07
12178;BME280;6152;48.728;9.256;2022-12-29T11:10:34;96622.47;;;13.17;87.86
12178;BME280;6152;48.728;9.256;2022-12-29T11:13:05;96613.22;;;13.02;90.23
12178;BME280;6152;48.728;9.256;2022-12-29T11:15:54;96625.78;;;12.63;93.82
12178;BME280;6152;48.728;9.256;2022-12-29T11:18:24;96618.75;;;12.42;97.88
12178;BME280;6152;48.728;9.256;2022-12-29T11:20:54;96629.41;;;12.39;100.00
12178;BME280;6152;48.728;9.256;2022-12-29T11:23:34;96622.63;;;12.25;100.00
12178;BME280;6152;48.728;9.256;2022-12-29T11:26:20;96629.56;;;12.37;100.00
12178;BME280;6152;48.728;9.256;2022-12-29T11:29:03;96628.47;;;12.40;100.00
12178;BME280;6152;48.728;9.256;2022-12-29T11:31:30;96629.06;;;12.32;100.00
12178;BME280;6152;48.728;9.256;2022-12-29T11:33:56;96639.59;;;12.20;100.00
12178;BME280;6152;48.728;9.256;2022-12-29T11:36:23;96636.38;;;12.16;100.00
12178;BME280;6152;48.728;9.256;2022-12-29T11:38:52;96638.00;;;12.06;100.00
12178;BME280;6152;48.728;9.256;2022-12-29T11:41:29;96630.59;;;11.89;100.00
12178;BME280;6152;48.728;9.256;2022-12-29T11:43:59;96633.28;;;11.87;100.00
12178;BME280;6152;48.728;9.256;2022-12-29T11:46:32;96627.97;;;11.89;100.00
12178;BME280;6152;48.728;9.256;2022-12-29T11:49:00;96617.19;;;11.93;100.00
12178;BME280;6152;48.728;9.256;2022-12-29T11:51:37;96628.41;;;12.06;100.00
12178;BME280;6152;48.728;9.256;2022-12-29T11:54:09;96626.66;;;12.18;100.00
12178;BME280;6152;48.728;9.256;2022-12-29T11:56:39;96620.53;;;12.30;100.00
12178;BME280;6152;48.728;9.256;2022-12-29T12:02:20;96622.78;;;12.46;100.00
12178;BME280;6152;48.728;9.256;2022-12-29T12:04:51;96634.78;;;12.37;100.00
12178;BME280;6152;48.728;9.256;2022-12-29T12:07:28;96619.31;;;12.23;100.00
12178;BME280;6152;48.728;9.256;2022-12-29T12:10:01;96622.00;;;12.10;100.00
12178;BME280;6152;48.728;9.256;2022-12-29T12:12:36;96628.41;;;12.06;100.00
12178;BME280;6152;48.728;9.256;2022-12-29T12:15:05;96622.19;;;11.96;100.00
12178;BME280;6152;48.728;9.256;2022-12-29T12:18:11;96618.25;;;11.91;100.00
12178;BME280;6152;48.728;9.256;2022-12-29T12:20:54;96611.44;;;11.77;100.00
12178;BME280;6152;48.728;9.256;2022-12-29T12:26:19;96620.56;;;11.72;100.00
12178;BME280;6152;48.728;9.256;2022-12-29T12:37:46;96627.63;;;11.93;100.00
12178;BME280;6152;48.728;9.256;2022-12-29T13:10:05;96592.25;;;11.31;100.00
12178;BME280;6152;48.728;9.256;2022-12-29T13:18:10;96593.97;;;12.36;100.00
12178;BME280;6152;48.728;9.256;2022-12-29T13:20:54;96606.78;;;12.73;100.00
12178;BME280;6152;48.728;9.256;2022-12-29T13:23:25;96597.91;;;12.64;100.00
12178;BME280;6152;48.728;9.256;2022-12-29T13:28:59;96601.53;;;13.39;100.00
12178;BME280;6152;48.728;9.256;2022-12-29T13:32:02;96606.78;;;13.28;100.00
12178;BME280;6152;48.728;9.256;2022-12-29T13:34:45;96594.34;;;12.87;100.00
12178;BME280;6152;48.728;9.256;2022-12-29T13:37:17;96597.91;;;12.64;100.00
12178;BME280;6152;48.728;9.256;2022-12-29T13:40:18;96592.25;;;12.24;100.00
12178;BME280;6152;48.728;9.256;2022-12-29T13:42:43;96598.50;;;12.10;100.00
12178;BME280;6152;48.728;9.256;2022-12-29T13:45:19;96600.28;;;11.99;100.00
12178;BME280;6152;48.728;9.256;2022-12-29T13:47:57;96603.34;;;11.93;100.00
12178;BME280;6152;48.728;9.256;2022-12-29T13:50:27;96586.00;;;11.81;100.00
12178;BME280;6152;48.728;9.256;2022-12-29T13:56:07;96588.75;;;11.66;100.00
12178;BME280;6152;48.728;9.256;2022-12-29T13:58:56;96584.94;;;11.59;100.00
12178;BME280;6152;48.728;9.256;2022-12-29T14:04:14;96586.53;;;11.49;100.00
12178;BME280;6152;48.728;9.256;2022-12-29T14:06:40;96583.22;;;11.47;100.00
12178;BME280;6152;48.728;9.256;2022-12-29T14:14:53;96583.44;;;11.44;100.00
12178;BME280;6152;48.728;9.256;2022-12-29T14:17:21;96579.41;;;11.40;100.00
12178;BME280;6152;48.728;9.256;2022-12-29T14:19:52;96564.63;;;11.28;100.00
12178;BME280;6152;48.728;9.256;2022-12-29T14:22:26;96584.78;;;11.26;100.00
12178;BME280;6152;48.728;9.256;2022-12-29T14:24:53;96587.06;;;11.18;100.00
12178;BME280;6152;48.728;9.256;2022-12-29T14:29:50;96576.59;;;11.07;100.00
12178;BME280;6152;48.728;9.256;2022-12-29T14:34:59;96584.84;;;11.01;100.00
12178;BME280;6152;48.728;9.256;2022-12-29T14:42:32;96576.19;;;11.00;100.00
12178;BME280;6152;48.728;9.256;2022-12-29T14:45:20;96579.84;;;10.98;100.00
12178;BME280;6152;48.728;9.256;2022-12-29T14:47:51;96587.59;;;10.87;100.00
12178;BME280;6152;48.728;9.256;2022-12-29T14:50:40;96606.94;;;10.83;100.00
12178;BME280;6152;48.728;9.256;2022-12-29T14:56:09;96597.63;;;10.68;100.00
12178;BME280;6152;48.728;9.256;2022-12-29T14:58:54;96591.16;;;10.60;100.00
12178;BME280;6152;48.728;9.256;2022-12-29T15:01:39;96587.31;;;10.53;100.00
12178;BME280;6152;48.728;9.256;2022-12-29T15:04:35;96583.41;;;10.48;100.00
12178;BME280;6152;48.728;9.256;2022-12-29T15:07:02;96594.09;;;10.43;100.00
12178;BME280;6152;48.728;9.256;2022-12-29T15:09:44;96589.31;;;10.37;100.00
12178;BME280;6152;48.728;9.256;2022-12-29T15:14:58;96597.00;;;10.26;100.00
12178;BME280;6152;48.728;9.256;2022-12-29T15:17:31;96592.03;;;10.23;100.00
12178;BME280;6152;48.728;9.256;2022-12-29T15:20:00;96588.69;;;10.21;100.00
12178;BME280;6152;48.728;9.256;2022-12-29T15:22:27;96575.88;;;10.18;100.00
12178;BME280;6152;48.728;9.256;2022-12-29T15:24:54;96574.50;;;10.12;100.00
12178;BME280;6152;48.728;9.256;2022-12-29T15:27:23;96583.44;;;10.08;100.00
12178;BME280;6152;48.728;9.256;2022-12-29T15:30:03;96586.34;;;10.04;100.00
12178;BME280;6152;48.728;9.256;2022-12-29T15:32:39;96589.28;;;9.99;100.00
12178;BME280;6152;48.728;9.256;2022-12-29T15:35:32;96588.84;;;10.05;100.00
12178;BME280;6152;48.728;9.256;2022-12-29T15:38:00;96595.22;;;10.14;100.00